createdAt,value
2017-11-24T00:01:07.391Z,99.99
2017-11-24T00:02:19.439Z,99.99
2017-11-24T00:03:31.979Z,99.99
2017-11-24T00:04:44.492Z,99.99
2017-11-24T00:05:57.506Z,99.99
2017-11-24T00:07:10.503Z,99.99
2017-11-24T00:08:23.506Z,99.99
2017-11-24T00:09:36.495Z,99.99
2017-11-24T00:10:49.488Z,99.99
2017-11-24T00:12:02.512Z,99.99
2017-11-24T00:13:15.540Z,99.99
2017-11-24T00:14:28.561Z,99.99
2017-11-24T00:15:41.733Z,99.99
2017-11-24T00:16:54.536Z,99.99
2017-11-24T00:18:07.511Z,99.99
2017-11-24T00:19:20.557Z,99.99
2017-11-24T00:20:33.095Z,99.99
2017-11-24T00:21:46.129Z,99.99
2017-11-24T00:22:58.586Z,99.99
2017-11-24T00:24:11.543Z,99.99
2017-11-24T00:25:24.538Z,99.99
2017-11-24T00:26:37.033Z,99.99
2017-11-24T00:27:50.035Z,99.99
2017-11-24T00:29:02.553Z,99.99
2017-11-24T00:30:15.548Z,99.99
2017-11-24T00:31:28.078Z,99.99
2017-11-24T00:32:41.075Z,99.99
2017-11-24T00:33:54.043Z,99.99
2017-11-24T00:35:07.031Z,99.99
2017-11-24T00:36:20.027Z,99.99
2017-11-24T00:37:33.064Z,99.99
2017-11-24T00:38:46.301Z,99.99
2017-11-24T00:39:59.321Z,99.99
2017-11-24T00:41:11.847Z,99.99
2017-11-24T00:42:24.828Z,99.99
2017-11-24T00:43:37.841Z,99.99
2017-11-24T00:44:50.784Z,99.99
2017-11-24T00:46:02.841Z,99.99
2017-11-24T00:47:16.017Z,99.99
2017-11-24T00:48:28.574Z,99.99
2017-11-24T00:49:41.604Z,99.99
2017-11-24T00:50:54.616Z,99.99
2017-11-24T00:52:07.138Z,99.99
2017-11-24T00:53:20.065Z,99.99
2017-11-24T00:54:32.588Z,99.99
2017-11-24T00:55:45.122Z,99.99
2017-11-24T00:56:57.627Z,99.99
2017-11-24T00:58:09.709Z,99.99
2017-11-24T00:59:22.252Z,99.99
2017-11-24T01:00:34.786Z,99.99
2017-11-24T01:01:47.321Z,99.99
2017-11-24T01:03:00.285Z,99.99
2017-11-24T01:04:12.767Z,99.99
2017-11-24T01:05:25.759Z,99.99
2017-11-24T01:06:38.723Z,99.99
2017-11-24T01:07:51.738Z,99.99
2017-11-24T01:09:04.705Z,99.99
2017-11-24T01:10:17.653Z,99.99
2017-11-24T01:11:30.216Z,99.99
2017-11-24T01:12:43.183Z,99.99
2017-11-24T01:13:55.757Z,99.99
2017-11-24T01:15:08.774Z,99.99
2017-11-24T01:16:21.756Z,99.99
2017-11-24T01:17:34.745Z,99.99
2017-11-24T01:18:47.712Z,99.99
2017-11-24T01:20:00.933Z,99.99
2017-11-24T01:21:13.904Z,99.99
2017-11-24T01:22:26.943Z,99.99
2017-11-24T01:23:39.971Z,99.99
2017-11-24T01:24:53.013Z,99.99
2017-11-24T01:26:05.751Z,99.99
2017-11-24T01:27:18.713Z,99.99
2017-11-24T01:28:30.759Z,99.99
2017-11-24T01:29:42.992Z,99.99
2017-11-24T01:30:55.998Z,99.99
2017-11-24T01:32:08.964Z,99.99
2017-11-24T01:33:21.981Z,99.99
2017-11-24T01:34:34.021Z,99.99
2017-11-24T01:35:47.217Z,99.99
2017-11-24T01:37:00.455Z,99.99
2017-11-24T01:38:12.478Z,99.99
2017-11-24T01:39:25.438Z,99.99
2017-11-24T01:40:38.423Z,99.99
2017-11-24T01:41:51.606Z,99.99
2017-11-24T01:43:04.580Z,99.99
2017-11-24T01:44:17.554Z,99.99
2017-11-24T01:45:30.068Z,99.99
2017-11-24T01:46:43.028Z,99.99
2017-11-24T01:47:56.060Z,99.99
2017-11-24T01:49:09.041Z,99.99
2017-11-24T01:50:21.534Z,99.99
2017-11-24T01:51:34.890Z,99.99
2017-11-24T01:52:48.077Z,99.99
2017-11-24T01:54:00.608Z,99.99
2017-11-24T01:55:13.819Z,99.99
2017-11-24T01:56:26.344Z,99.99
2017-11-24T01:57:39.313Z,99.99
2017-11-24T01:58:52.326Z,99.99
2017-11-24T02:00:05.324Z,99.99
2017-11-24T02:01:18.304Z,99.99
2017-11-24T02:02:30.798Z,99.99
2017-11-24T02:03:43.759Z,99.99
2017-11-24T02:04:56.753Z,99.99
2017-11-24T02:06:09.299Z,99.99
2017-11-24T02:07:21.865Z,99.99
2017-11-24T02:08:34.857Z,99.99
2017-11-24T02:09:47.364Z,99.99
2017-11-24T02:10:59.893Z,99.99
2017-11-24T02:12:11.986Z,99.99
2017-11-24T02:13:24.982Z,99.99
2017-11-24T02:14:37.526Z,99.99
2017-11-24T02:15:50.501Z,99.99
2017-11-24T02:17:03.488Z,99.99
2017-11-24T02:18:16.513Z,99.99
2017-11-24T02:19:29.481Z,99.99
2017-11-24T02:20:42.517Z,99.99
2017-11-24T02:21:55.525Z,99.99
2017-11-24T02:23:08.117Z,99.99
2017-11-24T02:24:20.635Z,99.99
2017-11-24T02:25:33.651Z,99.99
2017-11-24T02:26:46.136Z,99.99
2017-11-24T02:27:58.790Z,99.99
2017-11-24T02:29:11.740Z,99.99
2017-11-24T02:30:24.796Z,99.99
2017-11-24T02:31:36.364Z,99.99
2017-11-24T02:32:48.873Z,99.99
2017-11-24T02:34:01.886Z,99.99
2017-11-24T02:35:14.891Z,99.99
2017-11-24T02:36:27.896Z,99.99
2017-11-24T02:37:40.867Z,99.99
2017-11-24T02:38:53.867Z,99.99
2017-11-24T02:40:06.376Z,99.99
2017-11-24T02:41:18.876Z,99.99
2017-11-24T02:42:31.886Z,99.99
2017-11-24T02:43:45.053Z,99.99
2017-11-24T02:44:58.053Z,99.99
2017-11-24T02:46:09.177Z,99.99
2017-11-24T02:47:22.224Z,99.99
2017-11-24T02:48:35.400Z,99.99
2017-11-24T02:49:48.424Z,99.99
2017-11-24T02:51:01.432Z,99.99
2017-11-24T02:52:14.448Z,99.99
2017-11-24T02:53:27.208Z,99.99
2017-11-24T02:54:39.667Z,99.99
2017-11-24T02:55:52.888Z,99.99
2017-11-24T02:57:05.907Z,99.99
2017-11-24T02:58:18.913Z,99.99
2017-11-24T02:59:31.925Z,99.99
2017-11-24T03:00:44.930Z,99.99
2017-11-24T03:01:58.153Z,99.99
2017-11-24T03:03:11.390Z,99.99
2017-11-24T03:04:23.929Z,99.99
2017-11-24T03:05:36.181Z,99.99
2017-11-24T03:06:49.349Z,99.99
2017-11-24T03:08:02.565Z,99.99
2017-11-24T03:09:15.054Z,99.99
2017-11-24T03:10:28.016Z,99.99
2017-11-24T03:11:40.776Z,99.99
2017-11-24T03:12:53.775Z,99.99
2017-11-24T03:14:06.798Z,99.99
2017-11-24T03:15:19.358Z,99.99
2017-11-24T03:16:31.872Z,99.99
2017-11-24T03:17:45.102Z,99.99
2017-11-24T03:18:58.436Z,99.99
2017-11-24T03:20:11.434Z,99.99
2017-11-24T03:21:24.616Z,99.99
2017-11-24T03:22:36.686Z,99.99
2017-11-24T03:23:48.742Z,99.99
2017-11-24T03:25:01.973Z,99.99
2017-11-24T03:26:15.192Z,99.99
2017-11-24T03:27:28.178Z,99.99
2017-11-24T03:28:41.163Z,99.99
2017-11-24T03:29:54.577Z,99.99
2017-11-24T03:31:07.600Z,99.99
2017-11-24T03:32:20.661Z,99.99
2017-11-24T03:33:33.170Z,99.99
2017-11-24T03:34:45.703Z,99.99
2017-11-24T03:35:58.749Z,99.99
2017-11-24T03:37:11.929Z,99.99
2017-11-24T03:38:24.896Z,99.99
2017-11-24T03:39:37.877Z,99.99
2017-11-24T03:40:50.859Z,99.99
2017-11-24T03:42:03.840Z,99.99
2017-11-24T03:43:16.826Z,99.99
2017-11-24T03:44:29.807Z,99.99
2017-11-24T03:45:42.815Z,99.99
2017-11-24T03:46:55.343Z,99.99
2017-11-24T03:48:08.343Z,99.99
2017-11-24T03:49:21.380Z,99.99
2017-11-24T03:50:33.911Z,99.99
2017-11-24T03:51:46.638Z,99.99
2017-11-24T03:52:59.608Z,99.99
2017-11-24T03:54:12.611Z,99.99
2017-11-24T03:55:25.777Z,99.99
2017-11-24T03:56:38.770Z,99.99
2017-11-24T03:57:51.294Z,99.99
2017-11-24T03:59:04.716Z,99.99
2017-11-24T04:00:17.701Z,99.99
2017-11-24T04:01:30.740Z,99.99
2017-11-24T04:02:43.952Z,99.99
2017-11-24T04:03:57.141Z,99.99
2017-11-24T04:05:10.567Z,99.99
2017-11-24T04:06:23.285Z,99.99
2017-11-24T04:07:35.965Z,99.99
2017-11-24T04:08:48.955Z,99.99
2017-11-24T04:10:01.265Z,99.99
2017-11-24T04:11:14.470Z,99.99
2017-11-24T04:12:27.524Z,99.99
2017-11-24T04:13:40.027Z,99.99
2017-11-24T04:14:52.555Z,99.99
2017-11-24T04:16:05.589Z,99.99
2017-11-24T04:17:18.588Z,99.99
2017-11-24T04:18:31.567Z,99.99
2017-11-24T04:19:44.558Z,99.99
2017-11-24T04:20:57.092Z,99.99
2017-11-24T04:22:09.137Z,99.99
2017-11-24T04:23:21.636Z,99.99
2017-11-24T04:24:34.579Z,99.99
2017-11-24T04:25:47.598Z,99.99
2017-11-24T04:27:00.591Z,99.99
2017-11-24T04:28:13.127Z,99.99
2017-11-24T04:29:25.843Z,99.99
2017-11-24T04:30:38.825Z,99.99
2017-11-24T04:31:51.806Z,99.99
2017-11-24T04:33:04.840Z,99.99
2017-11-24T04:34:17.816Z,99.99
2017-11-24T04:35:31.010Z,99.99
2017-11-24T04:36:43.720Z,99.99
2017-11-24T04:37:56.933Z,99.99
2017-11-24T04:39:10.290Z,99.99
2017-11-24T04:40:22.561Z,99.99
2017-11-24T04:41:35.802Z,99.99
2017-11-24T04:42:48.773Z,99.99
2017-11-24T04:44:01.737Z,99.99
2017-11-24T04:45:14.777Z,99.99
2017-11-24T04:46:27.297Z,99.99
2017-11-24T04:47:40.509Z,99.99
2017-11-24T04:48:53.723Z,99.99
2017-11-24T04:50:06.683Z,99.99
2017-11-24T04:51:19.669Z,99.99
2017-11-24T04:52:32.663Z,99.99
2017-11-24T04:53:45.611Z,99.99
2017-11-24T04:54:58.364Z,99.99
2017-11-24T04:56:11.349Z,99.99
2017-11-24T04:57:23.876Z,99.99
2017-11-24T04:58:36.893Z,99.99
2017-11-24T04:59:50.329Z,99.99
2017-11-24T05:01:03.531Z,99.99
2017-11-24T05:02:16.551Z,99.99
2017-11-24T05:03:28.609Z,99.99
2017-11-24T05:04:41.624Z,99.99
2017-11-24T05:05:54.644Z,99.99
2017-11-24T05:07:07.869Z,99.99
2017-11-24T05:08:21.102Z,99.99
2017-11-24T05:09:34.349Z,99.99
2017-11-24T05:10:46.874Z,99.99
2017-11-24T05:11:59.389Z,99.99
2017-11-24T05:13:11.931Z,99.99
2017-11-24T05:14:25.088Z,99.99
2017-11-24T05:15:38.113Z,99.99
2017-11-24T05:16:51.126Z,99.99
2017-11-24T05:18:04.575Z,99.99
2017-11-24T05:19:17.516Z,99.99
2017-11-24T05:20:30.484Z,99.99
2017-11-24T05:21:43.469Z,99.99
2017-11-24T05:22:56.445Z,99.99
2017-11-24T05:24:09.635Z,99.99
2017-11-24T05:25:22.594Z,99.99
2017-11-24T05:26:35.775Z,99.99
2017-11-24T05:27:49.175Z,99.99
2017-11-24T05:29:02.206Z,99.99
2017-11-24T05:30:14.729Z,99.99
2017-11-24T05:31:27.419Z,99.99
2017-11-24T05:32:40.634Z,99.99
2017-11-24T05:33:53.642Z,99.99
2017-11-24T05:35:06.663Z,99.99
2017-11-24T05:36:19.386Z,99.99
2017-11-24T05:37:32.428Z,99.99
2017-11-24T05:38:45.418Z,99.99
2017-11-24T05:39:57.464Z,99.99
2017-11-24T05:41:10.012Z,99.99
2017-11-24T05:42:22.555Z,99.99
2017-11-24T05:43:35.533Z,99.99
2017-11-24T05:44:48.930Z,99.99
2017-11-24T05:46:01.923Z,99.99
2017-11-24T05:47:14.959Z,99.99
2017-11-24T05:48:27.958Z,99.99
2017-11-24T05:49:40.482Z,99.99
2017-11-24T05:50:53.849Z,99.99
2017-11-24T05:52:06.830Z,99.99
2017-11-24T05:53:19.856Z,99.99
2017-11-24T05:54:32.831Z,99.99
2017-11-24T05:55:45.864Z,99.99
2017-11-24T05:56:58.897Z,99.99
2017-11-24T05:58:12.069Z,99.99
2017-11-24T05:59:25.236Z,99.99
2017-11-24T06:00:37.755Z,99.99
2017-11-24T06:01:50.727Z,99.99
2017-11-24T06:03:02.760Z,99.99
2017-11-24T06:04:15.281Z,99.99
2017-11-24T06:05:28.301Z,99.99
2017-11-24T06:06:41.509Z,99.99
2017-11-24T06:07:54.554Z,99.99
2017-11-24T06:09:07.550Z,99.99
2017-11-24T06:10:20.585Z,99.99
2017-11-24T06:11:33.535Z,99.99
2017-11-24T06:12:46.255Z,99.99
2017-11-24T06:13:59.259Z,99.99
2017-11-24T06:15:12.246Z,99.99
2017-11-24T06:16:25.446Z,99.99
2017-11-24T06:17:38.452Z,99.99
2017-11-24T06:18:51.459Z,99.99
2017-11-24T06:20:04.445Z,99.99
2017-11-24T06:21:18.079Z,99.99
2017-11-24T06:23:28.230Z,99.99
2017-11-24T06:26:27.874Z,99.99
2017-11-24T06:29:14.586Z,99.99
2017-11-24T06:30:53.115Z,99.99
2017-11-24T06:32:19.351Z,99.99
2017-11-24T06:33:37.915Z,99.99
2017-11-24T06:34:59.073Z,99.99
2017-11-24T06:36:51.439Z,99.99
2017-11-24T06:38:10.319Z,99.99
2017-11-24T06:39:45.365Z,99.99
2017-11-24T06:41:24.494Z,99.99
2017-11-24T06:42:37.534Z,99.99
2017-11-24T06:43:50.079Z,99.99
2017-11-24T06:45:03.062Z,99.99
2017-11-24T06:46:16.098Z,99.99
2017-11-24T06:47:29.145Z,99.99
2017-11-24T06:48:42.336Z,99.99
2017-11-24T06:49:55.087Z,99.99
2017-11-24T06:51:07.629Z,99.99
2017-11-24T06:52:20.625Z,99.99
2017-11-24T06:53:32.710Z,99.99
2017-11-24T06:54:45.730Z,99.99
2017-11-24T06:55:58.677Z,99.99
2017-11-24T06:57:11.442Z,99.99
2017-11-24T06:58:24.650Z,99.99
2017-11-24T06:59:38.110Z,99.99
2017-11-24T07:00:51.139Z,99.99
2017-11-24T07:02:04.107Z,99.99
2017-11-24T07:03:17.065Z,99.99
2017-11-24T07:04:29.550Z,99.99
2017-11-24T07:05:42.546Z,99.99
2017-11-24T07:06:55.713Z,99.99
2017-11-24T07:08:08.945Z,99.99
2017-11-24T07:09:21.932Z,99.99
2017-11-24T07:10:34.937Z,99.99
2017-11-24T07:11:47.693Z,99.99
2017-11-24T07:13:00.644Z,99.99
2017-11-24T07:14:13.642Z,99.99
2017-11-24T07:15:26.621Z,99.99
2017-11-24T07:16:39.652Z,99.99
2017-11-24T07:17:52.658Z,99.99
2017-11-24T07:19:05.682Z,99.99
2017-11-24T07:20:18.847Z,99.99
2017-11-24T07:21:32.042Z,99.99
2017-11-24T07:22:45.056Z,99.99
2017-11-24T07:23:58.248Z,99.99
2017-11-24T07:25:10.791Z,99.99
2017-11-24T07:26:23.970Z,99.99
2017-11-24T07:27:36.945Z,99.99
2017-11-24T07:28:50.156Z,99.99
2017-11-24T07:30:02.660Z,99.99
2017-11-24T07:31:15.629Z,99.99
2017-11-24T07:32:28.645Z,99.99
2017-11-24T07:33:41.157Z,99.99
2017-11-24T07:34:54.139Z,99.99
2017-11-24T07:36:06.171Z,99.99
2017-11-24T07:37:19.341Z,99.99
2017-11-24T07:38:32.567Z,99.99
2017-11-24T07:39:45.109Z,99.99
2017-11-24T07:40:58.065Z,99.99
2017-11-24T07:42:11.077Z,99.99
2017-11-24T07:43:23.841Z,99.99
2017-11-24T07:44:36.833Z,99.99
2017-11-24T07:45:49.819Z,99.99
2017-11-24T07:47:02.831Z,99.99
2017-11-24T07:48:16.071Z,99.99
2017-11-24T07:49:29.105Z,99.99
2017-11-24T07:50:42.268Z,99.99
2017-11-24T07:51:55.475Z,99.99
2017-11-24T07:53:08.468Z,99.99
2017-11-24T07:54:21.431Z,99.99
2017-11-24T07:55:34.419Z,99.99
2017-11-24T07:56:47.444Z,99.99
2017-11-24T07:57:59.987Z,99.99
2017-11-24T07:59:13.175Z,99.99
2017-11-24T08:00:26.396Z,99.99
2017-11-24T08:01:38.900Z,99.99
2017-11-24T08:02:51.944Z,99.99
2017-11-24T08:04:04.664Z,99.99
2017-11-24T08:05:17.822Z,99.99
2017-11-24T08:06:30.842Z,99.99
2017-11-24T08:07:43.393Z,99.99
2017-11-24T08:08:56.795Z,99.99
2017-11-24T08:10:09.288Z,99.99
2017-11-24T08:11:21.990Z,99.99
2017-11-24T08:12:35.029Z,99.99
2017-11-24T08:13:47.539Z,99.99
2017-11-24T08:15:00.764Z,99.99
2017-11-24T08:16:13.338Z,99.99
2017-11-24T08:17:26.358Z,99.99
2017-11-24T08:18:38.893Z,99.99
2017-11-24T08:19:51.946Z,99.99
2017-11-24T08:21:05.155Z,99.99
2017-11-24T08:22:17.641Z,99.99
2017-11-24T08:23:30.837Z,99.99
2017-11-24T08:24:43.824Z,99.99
2017-11-24T08:25:57.032Z,99.99
2017-11-24T08:27:10.442Z,99.99
2017-11-24T08:28:23.868Z,99.99
2017-11-24T08:29:37.024Z,99.99
2017-11-24T08:30:50.210Z,99.99
2017-11-24T08:32:02.920Z,99.99
2017-11-24T08:33:15.655Z,99.99
2017-11-24T08:34:28.391Z,99.99
2017-11-24T08:35:41.373Z,99.99
2017-11-24T08:36:53.913Z,99.99
2017-11-24T08:38:06.451Z,99.99
2017-11-24T08:39:19.466Z,99.99
2017-11-24T08:40:31.959Z,99.99
2017-11-24T08:41:44.965Z,99.99
2017-11-24T08:42:57.977Z,99.99
2017-11-24T08:44:11.189Z,99.99
2017-11-24T08:45:24.197Z,99.99
2017-11-24T08:46:37.240Z,99.99
2017-11-24T08:47:50.235Z,99.99
2017-11-24T08:49:03.180Z,99.99
2017-11-24T08:50:16.381Z,99.99
2017-11-24T08:51:29.330Z,99.99
2017-11-24T08:52:42.312Z,99.99
2017-11-24T08:53:54.807Z,99.99
2017-11-24T08:55:07.816Z,99.99
2017-11-24T08:56:20.817Z,99.99
2017-11-24T08:57:33.333Z,99.99
2017-11-24T08:58:46.281Z,99.99
2017-11-24T08:59:59.503Z,99.99
2017-11-24T09:01:12.391Z,99.99
2017-11-24T09:02:24.943Z,99.99
2017-11-24T09:03:37.712Z,99.99
2017-11-24T09:04:50.730Z,99.99
2017-11-24T09:06:03.690Z,99.99
2017-11-24T09:07:16.207Z,99.99
2017-11-24T09:08:28.284Z,99.99
2017-11-24T09:09:41.485Z,99.99
2017-11-24T09:10:54.444Z,99.99
2017-11-24T09:12:07.146Z,99.99
2017-11-24T09:13:19.863Z,99.99
2017-11-24T09:14:32.966Z,99.99
2017-11-24T09:15:46.152Z,99.99
2017-11-24T09:16:59.136Z,99.99
2017-11-24T09:18:12.725Z,99.99
2017-11-24T09:19:25.739Z,99.99
2017-11-24T09:20:39.183Z,99.99
2017-11-24T09:21:52.214Z,99.99
2017-11-24T09:23:05.207Z,99.99
2017-11-24T09:24:18.797Z,99.99
2017-11-24T09:25:32.484Z,99.99
2017-11-24T09:26:45.637Z,99.99
2017-11-24T09:27:58.789Z,99.99
2017-11-24T09:29:11.923Z,99.99
2017-11-24T09:30:25.106Z,99.99
2017-11-24T09:31:38.334Z,99.99
2017-11-24T09:32:52.057Z,99.99
2017-11-24T09:34:05.733Z,99.99
2017-11-24T09:35:19.469Z,99.99
2017-11-24T09:36:33.180Z,99.99
2017-11-24T09:37:46.337Z,99.99
2017-11-24T09:39:00.046Z,99.99
2017-11-24T09:40:13.717Z,99.99
2017-11-24T09:41:27.361Z,99.99
2017-11-24T09:42:40.551Z,99.99
2017-11-24T09:43:54.242Z,99.99
2017-11-24T09:45:07.405Z,99.99
2017-11-24T09:46:21.100Z,99.99
2017-11-24T09:47:34.508Z,99.99
2017-11-24T09:48:48.249Z,99.99
2017-11-24T09:50:01.469Z,99.99
2017-11-24T09:51:15.377Z,99.99
2017-11-24T09:52:28.014Z,99.99
2017-11-24T09:53:41.722Z,99.99
2017-11-24T09:54:55.379Z,99.99
2017-11-24T09:56:09.113Z,99.99
2017-11-24T09:57:22.802Z,99.99
2017-11-24T09:58:35.976Z,99.99
2017-11-24T09:59:49.641Z,99.99
2017-11-24T10:01:03.340Z,99.99
2017-11-24T10:02:16.517Z,99.99
2017-11-24T10:03:29.183Z,99.99
2017-11-24T10:04:41.811Z,99.99
2017-11-24T10:05:55.473Z,99.99
2017-11-24T10:07:08.622Z,99.99
2017-11-24T10:08:22.278Z,99.99
2017-11-24T10:09:35.943Z,99.99
2017-11-24T10:10:49.154Z,99.99
2017-11-24T10:12:02.814Z,99.99
2017-11-24T10:13:16.028Z,99.99
2017-11-24T10:14:29.168Z,99.99
2017-11-24T10:15:43.031Z,99.99
2017-11-24T10:16:56.942Z,99.99
2017-11-24T10:18:10.632Z,99.99
2017-11-24T10:19:24.355Z,99.99
2017-11-24T10:20:37.522Z,99.99
2017-11-24T10:21:51.224Z,99.99
2017-11-24T10:23:04.417Z,99.99
2017-11-24T10:24:18.102Z,99.99
2017-11-24T10:25:31.814Z,99.99
2017-11-24T10:26:45.000Z,99.99
2017-11-24T10:27:58.713Z,99.99
2017-11-24T10:29:12.395Z,99.99
2017-11-24T10:30:25.559Z,99.99
2017-11-24T10:31:39.224Z,99.99
2017-11-24T10:32:52.384Z,99.99
2017-11-24T10:34:05.572Z,99.99
2017-11-24T10:35:18.759Z,99.99
2017-11-24T10:36:32.448Z,99.99
2017-11-24T10:37:46.155Z,99.99
2017-11-24T10:38:59.352Z,99.99
2017-11-24T10:40:13.065Z,99.99
2017-11-24T10:41:26.257Z,99.99
2017-11-24T10:42:38.940Z,99.99
2017-11-24T10:43:51.625Z,99.99
2017-11-24T10:45:04.869Z,99.99
2017-11-24T10:46:17.551Z,99.99
2017-11-24T10:47:29.708Z,99.99
2017-11-24T10:48:43.440Z,99.99
2017-11-24T10:49:56.601Z,99.99
2017-11-24T10:51:10.301Z,99.99
2017-11-24T10:52:23.973Z,99.99
2017-11-24T10:53:37.189Z,99.99
2017-11-24T10:54:50.842Z,99.99
2017-11-24T10:56:04.533Z,99.99
2017-11-24T10:57:18.291Z,99.99
2017-11-24T10:58:31.976Z,99.99
2017-11-24T10:59:45.708Z,99.99
2017-11-24T11:00:59.394Z,99.99
2017-11-24T11:02:12.098Z,99.99
2017-11-24T11:03:25.783Z,98.77
2017-11-24T11:04:39.423Z,98.54
2017-11-24T11:05:52.051Z,97.67
2017-11-24T11:07:05.242Z,96.66
2017-11-24T11:08:18.415Z,95.4
2017-11-24T11:09:32.100Z,94.82
2017-11-24T11:10:45.833Z,96.37
2017-11-24T11:11:59.312Z,95.21
2017-11-24T11:13:11.815Z,93.76
2017-11-24T11:14:24.977Z,93.43
2017-11-24T11:15:37.641Z,90.63
2017-11-24T11:16:51.360Z,89.51
2017-11-24T11:18:04.019Z,88.26
2017-11-24T11:19:17.729Z,86.28
2017-11-24T11:20:30.946Z,84.78
2017-11-24T11:21:44.646Z,82.69
2017-11-24T11:22:58.551Z,82.79
2017-11-24T11:24:11.234Z,84.43
2017-11-24T11:25:25.413Z,84.97
2017-11-24T11:26:39.083Z,84.48
2017-11-24T11:27:52.958Z,83.75
2017-11-24T11:29:06.152Z,82.98
2017-11-24T11:30:19.899Z,80.99
2017-11-24T11:31:33.601Z,80.61
2017-11-24T11:32:48.090Z,80.07
2017-11-24T11:34:01.934Z,77.4
2017-11-24T11:35:15.176Z,76.18
2017-11-24T11:36:28.887Z,75.05
2017-11-24T11:37:42.068Z,74.86
2017-11-24T11:38:55.742Z,74.86
2017-11-24T11:40:08.912Z,74.96
2017-11-24T11:41:22.613Z,74.47
2017-11-24T11:42:36.360Z,73.79
2017-11-24T11:43:49.058Z,70.86
2017-11-24T11:45:02.231Z,67.73
2017-11-24T11:46:15.898Z,65.08
2017-11-24T11:47:29.631Z,64.81
2017-11-24T11:48:43.360Z,66.44
2017-11-24T11:49:57.027Z,64.69
2017-11-24T11:51:09.674Z,63.26
2017-11-24T11:52:23.343Z,61.08
2017-11-24T11:53:36.537Z,61.41
2017-11-24T11:54:50.232Z,62.09
2017-11-24T11:56:03.918Z,63.59
2017-11-24T11:57:17.115Z,63.68
2017-11-24T11:58:30.828Z,64.81
2017-11-24T11:59:46.300Z,67.6
2017-11-24T12:01:00.106Z,68.12
2017-11-24T12:02:13.294Z,69.96
2017-11-24T12:03:27.093Z,70.47
2017-11-24T12:04:40.813Z,71.8
2017-11-24T12:05:54.458Z,73.41
2017-11-24T12:07:07.619Z,75.21
2017-11-24T12:08:21.163Z,76.53
2017-11-24T12:09:34.443Z,75.95
2017-11-24T12:10:47.629Z,72.05
2017-11-24T12:12:01.329Z,71.38
2017-11-24T12:13:15.014Z,70.51
2017-11-24T12:14:28.413Z,68.96
2017-11-24T12:15:42.092Z,68.31
2017-11-24T12:16:55.281Z,68.54
2017-11-24T12:18:09.010Z,68.41
2017-11-24T12:19:22.715Z,69.44
2017-11-24T12:20:36.421Z,71.25
2017-11-24T12:21:50.118Z,71.22
2017-11-24T12:23:03.853Z,70.18
2017-11-24T12:24:17.142Z,71.64
2017-11-24T12:25:30.867Z,71.25
2017-11-24T12:26:44.532Z,70.67
2017-11-24T12:27:57.715Z,70.28
2017-11-24T12:29:10.873Z,69.54
2017-11-24T12:30:23.507Z,68.41
2017-11-24T12:31:36.632Z,66.76
2017-11-24T12:32:51.217Z,65.75
2017-11-24T12:34:04.583Z,65.47
2017-11-24T12:35:18.191Z,67.8
2017-11-24T12:36:31.847Z,68.15
2017-11-24T12:37:45.538Z,66.69
2017-11-24T12:38:59.172Z,66.6
2017-11-24T12:40:12.908Z,65.05
2017-11-24T12:41:26.543Z,64.98
2017-11-24T12:42:40.275Z,64.81
2017-11-24T12:43:53.991Z,65.95
2017-11-24T12:45:16.065Z,66.34
2017-11-24T12:46:31.893Z,66.5
2017-11-24T12:47:45.235Z,67.86
2017-11-24T12:48:58.298Z,65.43
2017-11-24T12:50:11.474Z,64.01
2017-11-24T12:51:25.200Z,63.36
2017-11-24T12:52:38.368Z,62.23
2017-11-24T12:53:52.072Z,61.38
2017-11-24T12:55:05.838Z,60.53
2017-11-24T12:56:19.552Z,60.24
2017-11-24T12:57:32.699Z,60.05
2017-11-24T12:58:46.160Z,58.91
2017-11-24T12:59:59.818Z,58.54
2017-11-24T13:01:13.529Z,58.28
2017-11-24T13:02:26.703Z,59.72
2017-11-24T13:03:40.417Z,60.92
2017-11-24T13:04:54.161Z,62.38
2017-11-24T13:06:07.333Z,63.42
2017-11-24T13:07:20.992Z,64.33
2017-11-24T13:08:34.158Z,65.75
2017-11-24T13:09:48.718Z,66.79
2017-11-24T13:11:02.414Z,67.54
2017-11-24T13:12:16.637Z,66.89
2017-11-24T13:13:30.351Z,66.02
2017-11-24T13:14:44.025Z,63.52
2017-11-24T13:15:57.181Z,63.26
2017-11-24T13:17:10.860Z,61.77
2017-11-24T13:18:24.502Z,59.59
2017-11-24T13:19:38.186Z,59.23
2017-11-24T13:20:51.879Z,58.22
2017-11-24T13:22:05.583Z,59.16
2017-11-24T13:23:19.253Z,60.66
2017-11-24T13:24:32.919Z,62.64
2017-11-24T13:25:46.113Z,64.17
2017-11-24T13:26:59.779Z,66.37
2017-11-24T13:28:13.435Z,67.86
2017-11-24T13:29:26.548Z,68.02
2017-11-24T13:30:40.417Z,66.69
2017-11-24T13:31:53.599Z,64.11
2017-11-24T13:33:07.274Z,62.23
2017-11-24T13:34:20.973Z,63.29
2017-11-24T13:35:34.704Z,64.81
2017-11-24T13:36:48.380Z,66.05
2017-11-24T13:38:02.107Z,66.89
2017-11-24T13:39:15.269Z,68.05
2017-11-24T13:40:28.939Z,67.28
2017-11-24T13:41:42.638Z,66.92
2017-11-24T13:42:56.054Z,67.18
2017-11-24T13:44:09.758Z,66.89
2017-11-24T13:45:22.956Z,66.56
2017-11-24T13:46:36.614Z,66.3
2017-11-24T13:47:50.315Z,67.18
2017-11-24T13:49:04.009Z,68.02
2017-11-24T13:50:17.716Z,68.57
2017-11-24T13:51:30.940Z,68.73
2017-11-24T13:52:44.129Z,67.02
2017-11-24T13:53:57.807Z,64.82
2017-11-24T13:55:10.971Z,65.98
2017-11-24T13:56:23.640Z,64.23
2017-11-24T13:57:37.286Z,62.74
2017-11-24T13:58:50.943Z,60.64
2017-11-24T14:00:04.085Z,58.95
2017-11-24T14:01:17.823Z,58.78
2017-11-24T14:02:31.732Z,59.17
2017-11-24T14:03:45.418Z,60.02
2017-11-24T14:04:59.153Z,59.17
2017-11-24T14:06:12.366Z,57.93
2017-11-24T14:07:26.134Z,55.94
2017-11-24T14:08:40.068Z,54.14
2017-11-24T14:09:53.716Z,52.97
2017-11-24T14:11:07.413Z,51.27
2017-11-24T14:12:20.589Z,51.2
2017-11-24T14:13:34.286Z,47.99
2017-11-24T14:14:47.976Z,47.89
2017-11-24T14:16:01.644Z,49.14
2017-11-24T14:17:14.798Z,52.12
2017-11-24T14:18:28.501Z,51.39
2017-11-24T14:19:42.223Z,50.6
2017-11-24T14:20:55.946Z,50.8
2017-11-24T14:22:09.600Z,49.56
2017-11-24T14:23:23.552Z,48.14
2017-11-24T14:24:36.209Z,48.24
2017-11-24T14:25:49.890Z,48.63
2017-11-24T14:27:03.568Z,48.9
2017-11-24T14:28:17.263Z,50.24
2017-11-24T14:29:29.978Z,50.43
2017-11-24T14:30:43.165Z,49.54
2017-11-24T14:31:56.909Z,48.88
2017-11-24T14:33:10.581Z,48.12
2017-11-24T14:34:24.281Z,49.07
2017-11-24T14:35:37.464Z,52.46
2017-11-24T14:36:52.534Z,52.7
2017-11-24T14:38:14.028Z,53.55
2017-11-24T14:39:28.016Z,53.85
2017-11-24T14:40:41.714Z,54.13
2017-11-24T14:41:55.443Z,53.58
2017-11-24T14:43:09.517Z,54.65
2017-11-24T14:44:22.183Z,50.65
2017-11-24T14:45:35.916Z,51.26
2017-11-24T14:46:49.594Z,52.92
2017-11-24T14:48:02.782Z,53.65
2017-11-24T14:49:16.520Z,51.24
2017-11-24T14:50:30.278Z,49.8
2017-11-24T14:51:42.943Z,48.46
2017-11-24T14:52:56.693Z,46.17
2017-11-24T14:54:10.424Z,45.53
2017-11-24T14:55:24.108Z,44.3
2017-11-24T14:56:37.326Z,42.46
2017-11-24T14:57:51.876Z,40.37
2017-11-24T14:59:04.035Z,40.48
2017-11-24T15:00:17.767Z,41.17
2017-11-24T15:01:31.656Z,41.66
2017-11-24T15:02:45.345Z,40.47
2017-11-24T15:03:59.025Z,35.27
2017-11-24T15:05:12.723Z,35.65
2017-11-24T15:06:26.445Z,37.47
2017-11-24T15:07:39.168Z,38.2
2017-11-24T15:08:52.817Z,37.41
2017-11-24T15:10:11.719Z,39.45
2017-11-24T15:11:32.679Z,38.38
2017-11-24T15:12:45.860Z,39.65
2017-11-24T15:13:59.631Z,39.26
2017-11-24T15:15:12.815Z,40.23
2017-11-24T15:16:26.523Z,40.89
2017-11-24T15:17:39.699Z,40.7
2017-11-24T15:18:53.381Z,40.88
2017-11-24T15:20:06.873Z,40.17
2017-11-24T15:21:21.241Z,40.17
2017-11-24T15:22:34.917Z,41.36
2017-11-24T15:23:48.154Z,40.39
2017-11-24T15:25:01.842Z,41.27
2017-11-24T15:26:14.530Z,41.48
2017-11-24T15:27:28.295Z,41.28
2017-11-24T15:28:41.460Z,38.89
2017-11-24T15:29:56.667Z,38.1
2017-11-24T15:31:10.370Z,39.14
2017-11-24T15:32:24.025Z,40.29
2017-11-24T15:33:37.201Z,40.09
2017-11-24T15:34:50.914Z,39.8
2017-11-24T15:36:04.130Z,39.41
2017-11-24T15:37:17.846Z,38.38
2017-11-24T15:38:31.543Z,37.93
2017-11-24T15:39:45.256Z,37.57
2017-11-24T15:40:58.963Z,37.69
2017-11-24T15:42:12.141Z,37.88
2017-11-24T15:43:25.834Z,37.61
2017-11-24T15:44:39.580Z,35.37
2017-11-24T15:45:52.262Z,35.29
2017-11-24T15:47:06.877Z,35.29
2017-11-24T15:48:20.588Z,34.62
2017-11-24T15:49:34.248Z,32.51
2017-11-24T15:50:48.000Z,31.18